sensor_id;sensor_type;location;lat;lon;timestamp;P1;durP1;ratioP1;P2;durP2;ratioP2
67274;SDS011;55463;52.324;5.122;2023-04-01T00:02:16;59.63;;;16.10;;
67274;SDS011;55463;52.324;5.122;2023-04-01T00:04:41;58.53;;;16.40;;
67274;SDS011;55463;52.324;5.122;2023-04-01T00:07:08;43.42;;;15.48;;
67274;SDS011;55463;52.324;5.122;2023-04-01T00:09:33;49.55;;;14.77;;
67274;SDS011;55463;52.324;5.122;2023-04-01T00:12:00;54.45;;;16.08;;
67274;SDS011;55463;52.324;5.122;2023-04-01T00:14:25;52.00;;;16.25;;
67274;SDS011;55463;52.324;5.122;2023-04-01T00:16:51;53.10;;;15.52;;
67274;SDS011;55463;52.324;5.122;2023-04-01T00:19:17;53.53;;;15.20;;
67274;SDS011;55463;52.324;5.122;2023-04-01T00:21:43;42.35;;;14.75;;
67274;SDS011;55463;52.324;5.122;2023-04-01T00:24:08;50.50;;;16.17;;
67274;SDS011;55463;52.324;5.122;2023-04-01T00:26:34;57.92;;;16.98;;
67274;SDS011;55463;52.324;5.122;2023-04-01T00:28:59;61.17;;;19.13;;
67274;SDS011;55463;52.324;5.122;2023-04-01T00:31:25;61.60;;;15.75;;
67274;SDS011;55463;52.324;5.122;2023-04-01T00:33:51;63.92;;;19.30;;
67274;SDS011;55463;52.324;5.122;2023-04-01T00:36:17;58.42;;;16.95;;
67274;SDS011;55463;52.324;5.122;2023-04-01T00:38:45;56.53;;;16.33;;
67274;SDS011;55463;52.324;5.122;2023-04-01T00:41:12;63.20;;;15.10;;
67274;SDS011;55463;52.324;5.122;2023-04-01T00:43:40;55.83;;;15.93;;
67274;SDS011;55463;52.324;5.122;2023-04-01T00:46:06;65.22;;;16.83;;
67274;SDS011;55463;52.324;5.122;2023-04-01T00:48:39;49.75;;;13.77;;
67274;SDS011;55463;52.324;5.122;2023-04-01T00:51:14;49.03;;;13.23;;
67274;SDS011;55463;52.324;5.122;2023-04-01T00:53:43;46.88;;;12.25;;
67274;SDS011;55463;52.324;5.122;2023-04-01T00:59:02;48.55;;;11.43;;
67274;SDS011;55463;52.324;5.122;2023-04-01T01:01:33;38.72;;;9.82;;
67274;SDS011;55463;52.324;5.122;2023-04-01T01:04:00;32.75;;;10.60;;
67274;SDS011;55463;52.324;5.122;2023-04-01T01:06:46;33.05;;;9.90;;
67274;SDS011;55463;52.324;5.122;2023-04-01T01:11:55;25.90;;;9.15;;
67274;SDS011;55463;52.324;5.122;2023-04-01T01:17:26;34.15;;;10.05;;
67274;SDS011;55463;52.324;5.122;2023-04-01T01:28:36;31.88;;;9.20;;
67274;SDS011;55463;52.324;5.122;2023-04-01T01:36:43;33.28;;;8.48;;
67274;SDS011;55463;52.324;5.122;2023-04-01T01:39:10;21.75;;;8.10;;
67274;SDS011;55463;52.324;5.122;2023-04-01T01:41:38;24.73;;;8.15;;
67274;SDS011;55463;52.324;5.122;2023-04-01T01:44:08;23.08;;;8.00;;
67274;SDS011;55463;52.324;5.122;2023-04-01T01:46:36;20.60;;;7.50;;
67274;SDS011;55463;52.324;5.122;2023-04-01T01:49:04;20.10;;;7.15;;
67274;SDS011;55463;52.324;5.122;2023-04-01T01:51:31;17.75;;;6.30;;
67274;SDS011;55463;52.324;5.122;2023-04-01T01:53:56;14.32;;;5.97;;
67274;SDS011;55463;52.324;5.122;2023-04-01T01:56:22;11.27;;;6.00;;
67274;SDS011;55463;52.324;5.122;2023-04-01T02:01:47;15.85;;;7.05;;
67274;SDS011;55463;52.324;5.122;2023-04-01T02:04:15;16.55;;;6.63;;
67274;SDS011;55463;52.324;5.122;2023-04-01T02:06:45;17.38;;;7.00;;
67274;SDS011;55463;52.324;5.122;2023-04-01T02:09:17;14.68;;;6.25;;
67274;SDS011;55463;52.324;5.122;2023-04-01T02:11:56;15.02;;;6.28;;
67274;SDS011;55463;52.324;5.122;2023-04-01T02:14:43;13.93;;;6.57;;
67274;SDS011;55463;52.324;5.122;2023-04-01T02:22:32;14.63;;;6.55;;
67274;SDS011;55463;52.324;5.122;2023-04-01T02:25:02;13.68;;;6.32;;
67274;SDS011;55463;52.324;5.122;2023-04-01T02:27:32;11.52;;;5.57;;
67274;SDS011;55463;52.324;5.122;2023-04-01T02:29:57;19.38;;;6.50;;
67274;SDS011;55463;52.324;5.122;2023-04-01T02:32:23;26.25;;;8.85;;
67274;SDS011;55463;52.324;5.122;2023-04-01T02:34:50;44.15;;;11.07;;
67274;SDS011;55463;52.324;5.122;2023-04-01T02:37:16;41.88;;;12.23;;
67274;SDS011;55463;52.324;5.122;2023-04-01T02:39:42;47.70;;;13.18;;
67274;SDS011;55463;52.324;5.122;2023-04-01T02:42:08;65.70;;;15.77;;
67274;SDS011;55463;52.324;5.122;2023-04-01T02:44:33;78.38;;;17.35;;
67274;SDS011;55463;52.324;5.122;2023-04-01T02:46:59;79.35;;;18.05;;
67274;SDS011;55463;52.324;5.122;2023-04-01T02:49:25;68.57;;;17.80;;
67274;SDS011;55463;52.324;5.122;2023-04-01T02:51:53;59.60;;;17.25;;
67274;SDS011;55463;52.324;5.122;2023-04-01T02:54:18;59.17;;;17.50;;
67274;SDS011;55463;52.324;5.122;2023-04-01T02:56:44;60.65;;;18.08;;
67274;SDS011;55463;52.324;5.122;2023-04-01T02:59:10;61.85;;;17.20;;
67274;SDS011;55463;52.324;5.122;2023-04-01T03:01:36;42.17;;;14.93;;
67274;SDS011;55463;52.324;5.122;2023-04-01T03:04:01;46.13;;;16.10;;
67274;SDS011;55463;52.324;5.122;2023-04-01T03:06:28;44.17;;;14.18;;
67274;SDS011;55463;52.324;5.122;2023-04-01T03:08:53;44.25;;;13.02;;
67274;SDS011;55463;52.324;5.122;2023-04-01T03:11:19;43.25;;;13.07;;
67274;SDS011;55463;52.324;5.122;2023-04-01T03:13:44;29.80;;;11.13;;
67274;SDS011;55463;52.324;5.122;2023-04-01T03:16:10;29.90;;;10.60;;
67274;SDS011;55463;52.324;5.122;2023-04-01T03:18:36;36.58;;;10.73;;
67274;SDS011;55463;52.324;5.122;2023-04-01T03:21:14;32.80;;;9.82;;
67274;SDS011;55463;52.324;5.122;2023-04-01T03:23:44;33.13;;;9.90;;
67274;SDS011;55463;52.324;5.122;2023-04-01T03:26:09;46.25;;;11.55;;
67274;SDS011;55463;52.324;5.122;2023-04-01T03:28:35;38.05;;;10.93;;
67274;SDS011;55463;52.324;5.122;2023-04-01T03:31:00;28.38;;;9.02;;
67274;SDS011;55463;52.324;5.122;2023-04-01T03:33:26;23.02;;;7.97;;
67274;SDS011;55463;52.324;5.122;2023-04-01T03:35:51;20.30;;;7.90;;
67274;SDS011;55463;52.324;5.122;2023-04-01T03:38:17;20.10;;;7.22;;
67274;SDS011;55463;52.324;5.122;2023-04-01T03:40:43;14.38;;;6.75;;
67274;SDS011;55463;52.324;5.122;2023-04-01T03:43:08;14.07;;;6.90;;
67274;SDS011;55463;52.324;5.122;2023-04-01T03:45:35;12.68;;;6.90;;
67274;SDS011;55463;52.324;5.122;2023-04-01T03:48:01;11.68;;;5.68;;
67274;SDS011;55463;52.324;5.122;2023-04-01T03:50:26;11.98;;;4.97;;
67274;SDS011;55463;52.324;5.122;2023-04-01T03:52:52;9.45;;;4.15;;
67274;SDS011;55463;52.324;5.122;2023-04-01T03:55:17;7.13;;;3.95;;
67274;SDS011;55463;52.324;5.122;2023-04-01T03:57:43;10.07;;;4.53;;
67274;SDS011;55463;52.324;5.122;2023-04-01T04:00:09;12.40;;;5.22;;
67274;SDS011;55463;52.324;5.122;2023-04-01T04:02:34;11.10;;;5.65;;
67274;SDS011;55463;52.324;5.122;2023-04-01T04:05:00;10.15;;;5.45;;
67274;SDS011;55463;52.324;5.122;2023-04-01T04:07:26;11.07;;;6.25;;
67274;SDS011;55463;52.324;5.122;2023-04-01T04:09:51;11.00;;;6.45;;
67274;SDS011;55463;52.324;5.122;2023-04-01T04:12:16;12.48;;;7.60;;
67274;SDS011;55463;52.324;5.122;2023-04-01T04:14:42;13.75;;;7.55;;
67274;SDS011;55463;52.324;5.122;2023-04-01T04:17:09;15.73;;;7.85;;
67274;SDS011;55463;52.324;5.122;2023-04-01T04:19:40;13.90;;;7.22;;
67274;SDS011;55463;52.324;5.122;2023-04-01T04:22:06;18.02;;;8.15;;
67274;SDS011;55463;52.324;5.122;2023-04-01T04:24:33;18.00;;;8.07;;
67274;SDS011;55463;52.324;5.122;2023-04-01T04:27:00;17.65;;;8.68;;
67274;SDS011;55463;52.324;5.122;2023-04-01T04:29:25;16.63;;;8.43;;
67274;SDS011;55463;52.324;5.122;2023-04-01T04:31:50;15.13;;;7.95;;
67274;SDS011;55463;52.324;5.122;2023-04-01T04:34:16;17.08;;;8.43;;
67274;SDS011;55463;52.324;5.122;2023-04-01T04:36:43;16.05;;;8.52;;
67274;SDS011;55463;52.324;5.122;2023-04-01T04:39:08;18.35;;;8.32;;
67274;SDS011;55463;52.324;5.122;2023-04-01T04:41:36;17.33;;;9.02;;
67274;SDS011;55463;52.324;5.122;2023-04-01T04:44:02;16.50;;;8.73;;
67274;SDS011;55463;52.324;5.122;2023-04-01T04:46:27;20.40;;;8.95;;
67274;SDS011;55463;52.324;5.122;2023-04-01T04:48:53;16.08;;;8.77;;
67274;SDS011;55463;52.324;5.122;2023-04-01T04:51:19;15.10;;;8.57;;
67274;SDS011;55463;52.324;5.122;2023-04-01T04:53:46;16.50;;;9.20;;
67274;SDS011;55463;52.324;5.122;2023-04-01T04:56:11;16.52;;;9.13;;
67274;SDS011;55463;52.324;5.122;2023-04-01T04:58:37;17.58;;;9.63;;
67274;SDS011;55463;52.324;5.122;2023-04-01T05:01:11;17.23;;;9.32;;
67274;SDS011;55463;52.324;5.122;2023-04-01T05:03:38;18.55;;;9.35;;
67274;SDS011;55463;52.324;5.122;2023-04-01T05:06:04;22.25;;;10.55;;
67274;SDS011;55463;52.324;5.122;2023-04-01T05:08:30;19.20;;;10.20;;
67274;SDS011;55463;52.324;5.122;2023-04-01T05:10:56;20.30;;;9.48;;
67274;SDS011;55463;52.324;5.122;2023-04-01T05:13:21;21.70;;;9.82;;
67274;SDS011;55463;52.324;5.122;2023-04-01T05:15:47;20.10;;;9.35;;
67274;SDS011;55463;52.324;5.122;2023-04-01T05:18:12;22.20;;;9.98;;
67274;SDS011;55463;52.324;5.122;2023-04-01T05:20:38;22.15;;;9.95;;
67274;SDS011;55463;52.324;5.122;2023-04-01T05:23:03;19.48;;;10.70;;
67274;SDS011;55463;52.324;5.122;2023-04-01T05:25:29;22.88;;;9.85;;
67274;SDS011;55463;52.324;5.122;2023-04-01T05:27:54;27.52;;;10.18;;
67274;SDS011;55463;52.324;5.122;2023-04-01T05:30:20;29.23;;;10.80;;
67274;SDS011;55463;52.324;5.122;2023-04-01T05:32:46;25.33;;;11.30;;
67274;SDS011;55463;52.324;5.122;2023-04-01T05:35:11;24.55;;;9.70;;
67274;SDS011;55463;52.324;5.122;2023-04-01T05:37:37;22.33;;;9.93;;
67274;SDS011;55463;52.324;5.122;2023-04-01T05:40:03;23.90;;;10.27;;
67274;SDS011;55463;52.324;5.122;2023-04-01T05:42:29;28.50;;;10.43;;
67274;SDS011;55463;52.324;5.122;2023-04-01T05:44:55;25.23;;;10.88;;
67274;SDS011;55463;52.324;5.122;2023-04-01T05:47:22;29.13;;;11.60;;
67274;SDS011;55463;52.324;5.122;2023-04-01T05:49:47;27.48;;;11.90;;
67274;SDS011;55463;52.324;5.122;2023-04-01T05:52:13;31.58;;;11.25;;
67274;SDS011;55463;52.324;5.122;2023-04-01T05:54:38;30.95;;;11.43;;
67274;SDS011;55463;52.324;5.122;2023-04-01T05:57:04;29.20;;;11.02;;
67274;SDS011;55463;52.324;5.122;2023-04-01T05:59:29;19.50;;;9.02;;
67274;SDS011;55463;52.324;5.122;2023-04-01T06:01:56;17.98;;;7.68;;
67274;SDS011;55463;52.324;5.122;2023-04-01T06:04:22;23.55;;;8.50;;
67274;SDS011;55463;52.324;5.122;2023-04-01T06:06:48;21.05;;;9.50;;
67274;SDS011;55463;52.324;5.122;2023-04-01T06:09:15;16.40;;;7.82;;
67274;SDS011;55463;52.324;5.122;2023-04-01T06:14:39;14.90;;;7.78;;
67274;SDS011;55463;52.324;5.122;2023-04-01T06:29:22;25.35;;;10.43;;
67274;SDS011;55463;52.324;5.122;2023-04-01T06:40:37;21.50;;;10.23;;
67274;SDS011;55463;52.324;5.122;2023-04-01T06:43:25;28.25;;;10.18;;
67274;SDS011;55463;52.324;5.122;2023-04-01T06:46:19;25.42;;;9.93;;
67274;SDS011;55463;52.324;5.122;2023-04-01T06:54:36;27.48;;;9.60;;
67274;SDS011;55463;52.324;5.122;2023-04-01T06:57:09;23.55;;;8.05;;
67274;SDS011;55463;52.324;5.122;2023-04-01T07:00:11;21.77;;;8.57;;
67274;SDS011;55463;52.324;5.122;2023-04-01T07:02:43;23.20;;;8.90;;
67274;SDS011;55463;52.324;5.122;2023-04-01T07:05:14;22.80;;;8.90;;
67274;SDS011;55463;52.324;5.122;2023-04-01T07:10:17;33.28;;;10.55;;
67274;SDS011;55463;52.324;5.122;2023-04-01T07:12:49;30.77;;;11.45;;
67274;SDS011;55463;52.324;5.122;2023-04-01T07:15:28;30.52;;;10.77;;
67274;SDS011;55463;52.324;5.122;2023-04-01T07:18:18;32.55;;;10.75;;
67274;SDS011;55463;52.324;5.122;2023-04-01T07:24:23;36.97;;;12.38;;
67274;SDS011;55463;52.324;5.122;2023-04-01T07:26:49;37.92;;;12.35;;
67274;SDS011;55463;52.324;5.122;2023-04-01T07:29:19;37.73;;;14.07;;
67274;SDS011;55463;52.324;5.122;2023-04-01T07:34:26;41.45;;;13.65;;
67274;SDS011;55463;52.324;5.122;2023-04-01T07:50:08;37.85;;;13.88;;
67274;SDS011;55463;52.324;5.122;2023-04-01T07:52:44;29.33;;;12.27;;
67274;SDS011;55463;52.324;5.122;2023-04-01T07:55:23;36.83;;;13.88;;
67274;SDS011;55463;52.324;5.122;2023-04-01T08:00:42;35.40;;;14.40;;
67274;SDS011;55463;52.324;5.122;2023-04-01T08:03:14;34.67;;;12.85;;
67274;SDS011;55463;52.324;5.122;2023-04-01T08:17:30;34.65;;;12.13;;
67274;SDS011;55463;52.324;5.122;2023-04-01T08:20:41;32.17;;;11.43;;
67274;SDS011;55463;52.324;5.122;2023-04-01T08:28:36;28.13;;;11.52;;
67274;SDS011;55463;52.324;5.122;2023-04-01T08:31:17;33.15;;;10.98;;
67274;SDS011;55463;52.324;5.122;2023-04-01T08:33:58;31.27;;;10.88;;
67274;SDS011;55463;52.324;5.122;2023-04-01T08:36:34;20.40;;;9.70;;
67274;SDS011;55463;52.324;5.122;2023-04-01T08:39:04;24.88;;;10.25;;
67274;SDS011;55463;52.324;5.122;2023-04-01T08:47:13;21.35;;;8.40;;
67274;SDS011;55463;52.324;5.122;2023-04-01T08:55:36;16.85;;;8.50;;
67274;SDS011;55463;52.324;5.122;2023-04-01T09:11:22;16.33;;;8.82;;
67274;SDS011;55463;52.324;5.122;2023-04-01T09:36:38;21.33;;;10.38;;
67274;SDS011;55463;52.324;5.122;2023-04-01T09:41:59;25.45;;;11.10;;
67274;SDS011;55463;52.324;5.122;2023-04-01T10:31:50;16.67;;;10.30;;
67274;SDS011;55463;52.324;5.122;2023-04-01T10:40:13;15.93;;;9.60;;
67274;SDS011;55463;52.324;5.122;2023-04-01T10:56:39;12.45;;;8.18;;
67274;SDS011;55463;52.324;5.122;2023-04-01T11:18:57;17.17;;;9.88;;
67274;SDS011;55463;52.324;5.122;2023-04-01T11:21:46;15.52;;;10.38;;
67274;SDS011;55463;52.324;5.122;2023-04-01T11:38:49;19.45;;;12.13;;
67274;SDS011;55463;52.324;5.122;2023-04-01T11:41:30;18.77;;;11.83;;
67274;SDS011;55463;52.324;5.122;2023-04-01T11:49:47;21.67;;;14.05;;
67274;SDS011;55463;52.324;5.122;2023-04-01T11:58:22;32.85;;;15.57;;
67274;SDS011;55463;52.324;5.122;2023-04-01T12:24:44;19.48;;;9.65;;
67274;SDS011;55463;52.324;5.122;2023-04-01T12:32:47;12.53;;;7.63;;
67274;SDS011;55463;52.324;5.122;2023-04-01T12:35:25;15.30;;;7.97;;
67274;SDS011;55463;52.324;5.122;2023-04-01T12:40:40;13.93;;;7.53;;
67274;SDS011;55463;52.324;5.122;2023-04-01T12:43:32;12.82;;;7.30;;
67274;SDS011;55463;52.324;5.122;2023-04-01T12:46:13;19.40;;;8.43;;
67274;SDS011;55463;52.324;5.122;2023-04-01T12:52:10;11.25;;;5.97;;
67274;SDS011;55463;52.324;5.122;2023-04-01T13:30:17;12.18;;;6.90;;
67274;SDS011;55463;52.324;5.122;2023-04-01T13:32:51;9.73;;;7.07;;
67274;SDS011;55463;52.324;5.122;2023-04-01T13:38:32;15.27;;;8.55;;
67274;SDS011;55463;52.324;5.122;2023-04-01T13:41:33;9.43;;;7.45;;
67274;SDS011;55463;52.324;5.122;2023-04-01T13:47:20;9.02;;;6.63;;
67274;SDS011;55463;52.324;5.122;2023-04-01T14:15:50;8.13;;;6.65;;
67274;SDS011;55463;52.324;5.122;2023-04-01T14:24:45;11.63;;;7.90;;
67274;SDS011;55463;52.324;5.122;2023-04-01T14:35:52;9.43;;;7.05;;
67274;SDS011;55463;52.324;5.122;2023-04-01T14:41:48;8.45;;;6.85;;
67274;SDS011;55463;52.324;5.122;2023-04-01T14:50:25;9.32;;;6.38;;
67274;SDS011;55463;52.324;5.122;2023-04-01T14:58:10;11.55;;;5.97;;
67274;SDS011;55463;52.324;5.122;2023-04-01T15:00:42;7.00;;;5.68;;
67274;SDS011;55463;52.324;5.122;2023-04-01T15:03:33;10.57;;;5.85;;
67274;SDS011;55463;52.324;5.122;2023-04-01T15:09:00;7.60;;;5.28;;
67274;SDS011;55463;52.324;5.122;2023-04-01T15:11:37;6.97;;;4.75;;
67274;SDS011;55463;52.324;5.122;2023-04-01T15:17:01;7.68;;;4.63;;
67274;SDS011;55463;52.324;5.122;2023-04-01T15:25:23;7.95;;;4.80;;
67274;SDS011;55463;52.324;5.122;2023-04-01T15:28:19;5.90;;;4.80;;
67274;SDS011;55463;52.324;5.122;2023-04-01T15:44:24;8.98;;;4.70;;
67274;SDS011;55463;52.324;5.122;2023-04-01T15:47:07;6.10;;;4.80;;
67274;SDS011;55463;52.324;5.122;2023-04-01T15:50:18;6.70;;;4.72;;
67274;SDS011;55463;52.324;5.122;2023-04-01T15:55:42;6.40;;;4.28;;
67274;SDS011;55463;52.324;5.122;2023-04-01T15:58:24;6.17;;;4.13;;
67274;SDS011;55463;52.324;5.122;2023-04-01T16:01:03;5.78;;;4.57;;
67274;SDS011;55463;52.324;5.122;2023-04-01T16:06:24;5.72;;;4.47;;
67274;SDS011;55463;52.324;5.122;2023-04-01T16:19:59;8.18;;;5.00;;
67274;SDS011;55463;52.324;5.122;2023-04-01T16:22:27;6.15;;;4.68;;
67274;SDS011;55463;52.324;5.122;2023-04-01T16:25:14;6.75;;;4.00;;
67274;SDS011;55463;52.324;5.122;2023-04-01T16:41:48;3.72;;;3.05;;
67274;SDS011;55463;52.324;5.122;2023-04-01T16:44:23;2.92;;;2.70;;
67274;SDS011;55463;52.324;5.122;2023-04-01T16:46:56;3.42;;;3.08;;
67274;SDS011;55463;52.324;5.122;2023-04-01T16:49:40;3.08;;;2.70;;
67274;SDS011;55463;52.324;5.122;2023-04-01T16:54:38;3.63;;;3.17;;
67274;SDS011;55463;52.324;5.122;2023-04-01T17:02:30;3.05;;;2.67;;
67274;SDS011;55463;52.324;5.122;2023-04-01T17:18:18;2.55;;;2.33;;
67274;SDS011;55463;52.324;5.122;2023-04-01T17:23:51;2.85;;;2.65;;
67274;SDS011;55463;52.324;5.122;2023-04-01T17:35:09;3.20;;;2.90;;
67274;SDS011;55463;52.324;5.122;2023-04-01T17:37:45;2.67;;;2.47;;
67274;SDS011;55463;52.324;5.122;2023-04-01T17:51:51;3.78;;;3.00;;
67274;SDS011;55463;52.324;5.122;2023-04-01T18:03:05;3.90;;;2.95;;
67274;SDS011;55463;52.324;5.122;2023-04-01T18:08:52;4.70;;;3.63;;
67274;SDS011;55463;52.324;5.122;2023-04-01T18:22:39;4.00;;;3.60;;
67274;SDS011;55463;52.324;5.122;2023-04-01T18:25:15;4.07;;;3.67;;
67274;SDS011;55463;52.324;5.122;2023-04-01T18:27:47;5.53;;;3.67;;
67274;SDS011;55463;52.324;5.122;2023-04-01T18:30:18;4.57;;;3.85;;
67274;SDS011;55463;52.324;5.122;2023-04-01T18:35:53;4.68;;;4.20;;
67274;SDS011;55463;52.324;5.122;2023-04-01T18:38:57;5.50;;;4.00;;
67274;SDS011;55463;52.324;5.122;2023-04-01T18:47:30;5.57;;;4.53;;
67274;SDS011;55463;52.324;5.122;2023-04-01T18:55:42;6.95;;;5.07;;
67274;SDS011;55463;52.324;5.122;2023-04-01T19:06:54;5.75;;;5.07;;
67274;SDS011;55463;52.324;5.122;2023-04-01T19:09:27;6.20;;;4.75;;
67274;SDS011;55463;52.324;5.122;2023-04-01T19:17:51;5.35;;;4.65;;
67274;SDS011;55463;52.324;5.122;2023-04-01T19:20:41;5.30;;;4.63;;
67274;SDS011;55463;52.324;5.122;2023-04-01T19:29:12;4.53;;;3.97;;
67274;SDS011;55463;52.324;5.122;2023-04-01T19:31:56;6.35;;;4.65;;
67274;SDS011;55463;52.324;5.122;2023-04-01T19:35:08;6.68;;;5.32;;
67274;SDS011;55463;52.324;5.122;2023-04-01T19:37:37;6.85;;;5.00;;
67274;SDS011;55463;52.324;5.122;2023-04-01T19:40:30;7.22;;;5.50;;
67274;SDS011;55463;52.324;5.122;2023-04-01T19:51:16;8.27;;;6.00;;
67274;SDS011;55463;52.324;5.122;2023-04-01T19:54:04;8.00;;;5.75;;
67274;SDS011;55463;52.324;5.122;2023-04-01T19:56:43;9.50;;;5.63;;
67274;SDS011;55463;52.324;5.122;2023-04-01T20:04:49;7.65;;;5.32;;
67274;SDS011;55463;52.324;5.122;2023-04-01T20:12:51;10.60;;;6.05;;
67274;SDS011;55463;52.324;5.122;2023-04-01T20:15:35;8.18;;;5.90;;
67274;SDS011;55463;52.324;5.122;2023-04-01T20:18:05;9.30;;;5.47;;
67274;SDS011;55463;52.324;5.122;2023-04-01T20:20:39;7.35;;;5.75;;
67274;SDS011;55463;52.324;5.122;2023-04-01T20:26:06;8.65;;;6.15;;
67274;SDS011;55463;52.324;5.122;2023-04-01T20:31:17;8.13;;;5.65;;
67274;SDS011;55463;52.324;5.122;2023-04-01T20:42:00;6.72;;;4.78;;
67274;SDS011;55463;52.324;5.122;2023-04-01T20:44:40;6.75;;;5.38;;
67274;SDS011;55463;52.324;5.122;2023-04-01T20:47:24;8.45;;;5.70;;
67274;SDS011;55463;52.324;5.122;2023-04-01T20:58:16;8.77;;;5.35;;
67274;SDS011;55463;52.324;5.122;2023-04-01T21:11:25;5.20;;;4.55;;
67274;SDS011;55463;52.324;5.122;2023-04-01T21:25:27;9.02;;;5.40;;
67274;SDS011;55463;52.324;5.122;2023-04-01T21:34:29;7.65;;;5.82;;
67274;SDS011;55463;52.324;5.122;2023-04-01T21:39:47;9.55;;;6.20;;
67274;SDS011;55463;52.324;5.122;2023-04-01T22:05:55;7.18;;;6.07;;
67274;SDS011;55463;52.324;5.122;2023-04-01T22:16:42;10.82;;;6.65;;
67274;SDS011;55463;52.324;5.122;2023-04-01T22:32:38;11.57;;;6.60;;
67274;SDS011;55463;52.324;5.122;2023-04-01T22:41:07;12.15;;;7.20;;
67274;SDS011;55463;52.324;5.122;2023-04-01T22:43:47;9.65;;;6.53;;
67274;SDS011;55463;52.324;5.122;2023-04-01T22:48:52;12.57;;;7.47;;
67274;SDS011;55463;52.324;5.122;2023-04-01T22:54:17;13.68;;;8.48;;
67274;SDS011;55463;52.324;5.122;2023-04-01T23:02:28;15.68;;;7.43;;
67274;SDS011;55463;52.324;5.122;2023-04-01T23:05:00;11.85;;;7.22;;
67274;SDS011;55463;52.324;5.122;2023-04-01T23:12:55;18.50;;;8.02;;
67274;SDS011;55463;52.324;5.122;2023-04-01T23:15:23;15.48;;;8.60;;
67274;SDS011;55463;52.324;5.122;2023-04-01T23:17:51;17.00;;;8.57;;
67274;SDS011;55463;52.324;5.122;2023-04-01T23:23:14;16.17;;;7.82;;
67274;SDS011;55463;52.324;5.122;2023-04-01T23:28:39;13.40;;;7.70;;
67274;SDS011;55463;52.324;5.122;2023-04-01T23:33:55;15.52;;;8.20;;
67274;SDS011;55463;52.324;5.122;2023-04-01T23:36:23;12.45;;;8.00;;
67274;SDS011;55463;52.324;5.122;2023-04-01T23:38:50;15.75;;;7.57;;
67274;SDS011;55463;52.324;5.122;2023-04-01T23:41:23;11.52;;;7.75;;
67274;SDS011;55463;52.324;5.122;2023-04-01T23:43:55;14.05;;;7.60;;
67274;SDS011;55463;52.324;5.122;2023-04-01T23:46:25;14.02;;;8.50;;
67274;SDS011;55463;52.324;5.122;2023-04-01T23:48:50;20.13;;;8.05;;
67274;SDS011;55463;52.324;5.122;2023-04-01T23:51:27;15.50;;;8.32;;
67274;SDS011;55463;52.324;5.122;2023-04-01T23:54:02;19.55;;;8.20;;
67274;SDS011;55463;52.324;5.122;2023-04-01T23:56:50;15.85;;;8.52;;
67274;SDS011;55463;52.324;5.122;2023-04-01T23:59:19;13.83;;;7.77;;
